Colton, New York
Current Conditions -  °F | °C
As of 7:53 PM on Friday 19 Dec 2014 (Local Time) from KMSS Reporting Station
Clear Clear  
Wind Chill:   Ceiling: Unl
Heat Index: 14°   Visibility: 10mi
Dew Point: 11°   Wind: 6mph
Humidity: 88%   Direction: 220°SW
Pressure: 30.25"   Gusts: NA
Location:  44.55°N, 74.94°W
Report Text: KMSS 200053Z AUTO 22005KT 10SM CLR M10/M12 A3025 RMK AO2 SLP253 T11001117
Loading
Personal Weather Stations






























Interactive Weather Map New forecast layout! Learn more

10-Day Weather Forecast

Advertisements
Track Severe Weather on mobile